Jj Sky — VRJA6 — position and weather

sailwx.info

Track history (hours):
 
Tides and Currents Weather Stations Pressure Air Temp Water Temp Dewpoint Dewpoint Depression Visibility Wind Speed Wind Dir Waves Ship Positions

Jj Sky

Last reported at 2017-Jul-25 04:13 UTC. Time now 2017-Jul-26 18:36 UTC.
Position N 34°36' E 134°54'.

Length 148 m; draft 7.2 m.

Type: Ship (hazmat cat D). MMSI: 477397500.

Date/timePositionNaut miles runAvg speedWind from/ knotsBaromVisibWave heightAir tempDewpointWater temp
2017-Jul-25 04:13N 34°36' E 134°54'314.6
2017-Jul-25 03:59N 34°37' E 134°58'612.8
2017-Jul-25 03:29N 34°37' E 135°06'815.8
2017-Jul-25 03:00N 34°38' E 135°15'2 3.1
2017-Jul-25 02:25N 34°40' E 135°14'0 0.1
2017-Jul-25 01:18N 34°39' E 135°14'0 0.0
2017-Jul-25 01:00N 34°39' E 135°14'0 0.0
2017-Jul-25 00:30N 34°39' E 135°14'0 0.1
2017-Jul-24 23:54N 34°40' E 135°14'0 0.0
2017-Jul-24 23:30N 34°40' E 135°14'0 0.2
2017-Jul-24 22:53N 34°39' E 135°14'0 0.0
2017-Jul-24 22:29N 34°39' E 135°14'0 0.1
2017-Jul-24 22:01N 34°39' E 135°15'4 8.3
2017-Jul-24 21:30N 34°39' E 135°19'4 7.7
2017-Jul-24 21:00N 34°39' E 135°24'0 0.1
2017-Jul-24 20:30N 34°39' E 135°24'0 0.0
2017-Jul-24 20:00N 34°39' E 135°24'0 0.1
2017-Jul-24 19:30N 34°39' E 135°24'0 0.0
2017-Jul-24 19:00N 34°39' E 135°24'0 0.0
2017-Jul-24 18:28N 34°39' E 135°24'0 0.0
2017-Jul-24 17:58N 34°39' E 135°24'0 0.0
2017-Jul-24 17:28N 34°39' E 135°24'0 0.0
2017-Jul-24 16:57N 34°39' E 135°24'0 0.0
2017-Jul-24 16:27N 34°39' E 135°24'0 0.0
2017-Jul-24 15:44N 34°39' E 135°24'0 0.0
2017-Jul-24 12:55N 34°39' E 135°24'0 0.0
2017-Jul-24 12:25N 34°39' E 135°24'0 0.0
2017-Jul-24 11:43N 34°39' E 135°24'0 0.0
2017-Jul-24 11:28N 34°39' E 135°24'0 0.0
2017-Jul-24 10:53N 34°39' E 135°24'0 0.0
2017-Jul-24 10:28N 34°39' E 135°24'0 0.0
2017-Jul-24 09:58N 34°39' E 135°24'0 0.0
2017-Jul-24 09:30N 34°39' E 135°24'0 0.0
2017-Jul-24 08:57N 34°39' E 135°24'0 0.0
2017-Jul-24 08:15N 34°39' E 135°24'0 0.0
2017-Jul-24 07:52N 34°39' E 135°24'0 0.0
2017-Jul-24 07:20N 34°39' E 135°24'0 0.0
2017-Jul-24 06:56N 34°39' E 135°24'0 0.0
2017-Jul-24 05:43N 34°39' E 135°24'0 0.0
2017-Jul-24 05:25N 34°39' E 135°24'0 0.0
2017-Jul-24 04:49N 34°39' E 135°24'0 0.0
2017-Jul-24 04:24N 34°39' E 135°24'0 0.0
2017-Jul-24 04:00N 34°39' E 135°24'0 0.1
2017-Jul-24 03:00N 34°39' E 135°24'0 0.2
2017-Jul-24 02:30N 34°39' E 135°24'0 0.0
2017-Jul-24 01:53N 34°39' E 135°24'0 0.0
2017-Jul-24 01:11N 34°39' E 135°24'0 0.0
2017-Jul-24 00:53N 34°39' E 135°24'0 0.0
2017-Jul-24 00:23N 34°39' E 135°24'0 0.0
2017-Jul-23 23:58N 34°39' E 135°24'0 0.0
2017-Jul-23 23:28N 34°39' E 135°24'0 0.0
2017-Jul-23 22:58N 34°39' E 135°24'0 0.0
2017-Jul-23 22:22N 34°39' E 135°24'0 0.0
2017-Jul-23 21:57N 34°39' E 135°24'0 0.2
2017-Jul-23 21:30N 34°39' E 135°24'5 9.5
2017-Jul-23 21:00N 34°36' E 135°19'714.9
2017-Jul-23 20:30N 34°35' E 135°10'714.3
2017-Jul-23 20:00N 34°36' E 135°02'814.8
2017-Jul-23 19:29N 34°35' E 134°53'57813.5
2017-Jul-22 00:41N 31°34' E 123°58'314.6
2017-Jul-22 00:28N 31°33' E 123°54'714.6
2017-Jul-22 00:00N 31°30' E 123°47'714.7
2017-Jul-21 23:30N 31°27' E 123°39'714.6
2017-Jul-21 23:00N 31°24' E 123°31'714.3
2017-Jul-21 22:29N 31°21' E 123°23'714.5
2017-Jul-21 22:00N 31°18' E 123°16'714.9
2017-Jul-21 21:30N 31°15' E 123°08'815.3
2017-Jul-21 21:00N 31°12' E 122°60'815.1
2017-Jul-21 20:30N 31°09' E 122°52'714.3
2017-Jul-21 20:00N 31°06' E 122°44'815.1
2017-Jul-21 19:30N 31°05' E 122°35'815.0
2017-Jul-21 19:00N 31°05' E 122°27'612.9
2017-Jul-21 18:30N 31°06' E 122°19'714.8
2017-Jul-21 18:00N 31°10' E 122°12'714.7
2017-Jul-21 17:30N 31°14' E 122°05'714.8
2017-Jul-21 17:00N 31°15' E 121°56'714.6
2017-Jul-21 16:30N 31°17' E 121°48'713.1
2017-Jul-21 16:00N 31°20' E 121°41'1 1.1
2017-Jul-21 15:29N 31°20' E 121°40'0 0.0
2017-Jul-21 14:41N 31°20' E 121°40'0 0.0
2017-Jul-21 14:05N 31°20' E 121°40'0 0.5
2017-Jul-21 13:59N 31°20' E 121°40'0 0.0
2017-Jul-21 13:28N 31°20' E 121°40'0 0.0
2017-Jul-21 12:46N 31°20' E 121°40'0 0.0
2017-Jul-21 12:28N 31°20' E 121°40'0 0.0
2017-Jul-21 11:58N 31°20' E 121°40'0 0.1
2017-Jul-21 11:21N 31°20' E 121°40'0 0.1
2017-Jul-21 10:54N 31°20' E 121°40'0 0.0
2017-Jul-21 10:27N 31°20' E 121°40'0 0.0
2017-Jul-21 09:57N 31°20' E 121°40'0 0.0
2017-Jul-21 09:30N 31°20' E 121°40'0 0.0
2017-Jul-21 08:56N 31°20' E 121°40'0 0.0
2017-Jul-21 08:26N 31°20' E 121°40'0 0.0
2017-Jul-21 07:50N 31°20' E 121°40'0 0.0
2017-Jul-21 07:29N 31°20' E 121°40'0 0.0
2017-Jul-21 06:58N 31°20' E 121°40'0 0.0
2017-Jul-21 06:28N 31°20' E 121°40'0 0.1
2017-Jul-21 05:52N 31°20' E 121°40'0 0.0
2017-Jul-21 05:30N 31°20' E 121°40'0 0.1
2017-Jul-21 05:00N 31°20' E 121°40'4 8.5
2017-Jul-21 04:30N 31°19' E 121°45'713.4
2017-Jul-21 04:00N 31°16' E 121°52'713.6
2017-Jul-21 03:31N 31°15' E 122°00'611.8
2017-Jul-21 03:00N 31°13' E 122°07'612.8
2017-Jul-21 02:30N 31°10' E 122°13'510.2
2017-Jul-21 02:00N 31°07' E 122°18'713.8
2017-Jul-21 01:29N 31°07' E 122°26'511.1
2017-Jul-21 01:00N 31°06' E 122°32'511.0
2017-Jul-21 00:30N 31°03' E 122°28'4 7.2
2017-Jul-21 00:00N 31°00' E 122°31'5 8.7
2017-Jul-20 23:27N 31°02' E 122°36'0 0.0
2017-Jul-20 22:51N 31°02' E 122°36'0 0.0
2017-Jul-20 22:30N 31°02' E 122°36'0 0.0
2017-Jul-20 21:57N 31°02' E 122°36'0 0.0
2017-Jul-20 21:26N 31°02' E 122°36'0 0.1
2017-Jul-20 20:53N 31°02' E 122°36'0 0.0
2017-Jul-20 20:29N 31°02' E 122°36'0 0.0
2017-Jul-20 19:56N 31°02' E 122°36'0 0.0
2017-Jul-20 18:58N 31°02' E 122°36'0 0.0
2017-Jul-20 18:25N 31°02' E 122°36'0 0.0
2017-Jul-20 17:46N 31°02' E 122°36'0 0.2
2017-Jul-20 17:28N 31°02' E 122°36'0 0.0
2017-Jul-20 14:32N 31°02' E 122°36'0 0.0
2017-Jul-20 12:16N 31°02' E 122°36'0 0.0
2017-Jul-20 11:52N 31°02' E 122°36'0 0.0
2017-Jul-20 11:22N 31°02' E 122°36'0 0.0
2017-Jul-20 10:10N 31°02' E 122°36'0 0.0
2017-Jul-20 09:58N 31°02' E 122°36'0 0.0
2017-Jul-20 08:57N 31°01' E 122°36'0 0.0
2017-Jul-20 08:27N 31°01' E 122°36'0 0.1
2017-Jul-20 07:57N 31°01' E 122°36'3 7.0
2017-Jul-20 07:30N 30°60' E 122°39'815.9
2017-Jul-20 07:01N 31°05' E 122°47'816.3
2017-Jul-20 06:31N 31°08' E 122°55'816.0
2017-Jul-20 06:00N 31°13' E 123°03'815.1
2017-Jul-20 05:30N 31°16' E 123°11'815.2
2017-Jul-20 04:59N 31°18' E 123°20'714.7
2017-Jul-20 04:31N 31°21' E 123°27'714.5
2017-Jul-20 04:00N 31°24' E 123°35'714.6
2017-Jul-20 03:30N 31°27' E 123°43'814.5
2017-Jul-20 02:59N 31°30' E 123°51'714.1
2017-Jul-20 02:30N 31°32' E 123°58'713.9
2017-Jul-20 02:00N 31°35' E 124°06'813.7
2017-Jul-20 01:23N 31°39' E 124°15'1414.4
2017-Jul-20 00:24N 31°45' E 124°30'614.5
2017-Jul-19 23:59N 31°47' E 124°36'714.5
2017-Jul-19 23:28N 31°50' E 124°45'814.8
2017-Jul-19 22:57N 31°53' E 124°53'614.2
2017-Jul-19 22:30N 31°55' E 125°00'51812.3
2017-Jul-18 04:24N 34°34' E 134°49'614.2
2017-Jul-18 04:00N 34°36' E 134°55'612.4
2017-Jul-18 03:29N 34°37' E 135°03'713.5
2017-Jul-18 02:58N 34°37' E 135°11'4 8.4
2017-Jul-18 02:30N 34°39' E 135°15'1 1.2
2017-Jul-18 01:56N 34°39' E 135°14'0 0.0
2017-Jul-18 01:20N 34°39' E 135°14'0 0.0
2017-Jul-18 00:56N 34°39' E 135°14'0 0.0
2017-Jul-17 23:36N 34°39' E 135°14'0 0.0
2017-Jul-17 23:18N 34°39' E 135°14'0 0.0
2017-Jul-17 23:00N 34°39' E 135°14'0 0.0
2017-Jul-17 22:18N 34°39' E 135°14'0 0.2
2017-Jul-17 22:00N 34°40' E 135°14'3 6.4
2017-Jul-17 21:30N 34°38' E 135°18'5 9.9
2017-Jul-17 21:00N 34°39' E 135°24'0 0.1
2017-Jul-17 20:25N 34°39' E 135°24'0 0.1
2017-Jul-17 19:55N 34°39' E 135°24'0 0.0
2017-Jul-17 19:30N 34°39' E 135°24'0 0.0
2017-Jul-17 19:00N 34°39' E 135°24'0 0.0
2017-Jul-17 18:30N 34°39' E 135°24'0 0.0
2017-Jul-17 18:00N 34°39' E 135°24'0 0.0
2017-Jul-17 17:30N 34°39' E 135°24'0 0.0
2017-Jul-17 16:53N 34°39' E 135°24'0 0.0
2017-Jul-17 16:29N 34°39' E 135°24'0 0.0
2017-Jul-17 15:59N 34°39' E 135°24'0 0.0
2017-Jul-17 15:26N 34°39' E 135°24'0 0.0
2017-Jul-17 14:56N 34°39' E 135°24'0 0.0
2017-Jul-17 14:26N 34°39' E 135°24'0 0.0
2017-Jul-17 13:56N 34°39' E 135°24'0 0.0
2017-Jul-17 13:13N 34°39' E 135°24'0 0.0
2017-Jul-17 12:55N 34°39' E 135°24'0 0.0
2017-Jul-17 12:30N 34°39' E 135°24'0 0.0
2017-Jul-17 12:00N 34°39' E 135°24'0 0.0
2017-Jul-17 11:18N 34°39' E 135°24'0 0.0
2017-Jul-17 11:00N 34°39' E 135°24'0 0.0
2017-Jul-17 10:30N 34°39' E 135°24'0 0.0
2017-Jul-17 09:53N 34°39' E 135°24'0 0.0
2017-Jul-17 09:29N 34°39' E 135°24'0 0.0
2017-Jul-17 08:59N 34°39' E 135°24'0 0.0
2017-Jul-17 08:29N 34°39' E 135°24'0 0.0
2017-Jul-17 07:50N 34°39' E 135°24'0 0.0
2017-Jul-17 07:26N 34°39' E 135°24'0 0.0
2017-Jul-17 06:43N 34°39' E 135°24'0 0.0
2017-Jul-17 06:19N 34°39' E 135°24'0 0.0
2017-Jul-17 05:22N 34°39' E 135°24'0 0.0
2017-Jul-17 04:58N 34°39' E 135°24'0 0.1
2017-Jul-17 04:25N 34°39' E 135°24'0 0.1
2017-Jul-17 03:43N 34°39' E 135°24'0 0.0
2017-Jul-17 03:30N 34°39' E 135°24'0 0.0
2017-Jul-17 03:00N 34°39' E 135°24'0 0.1
2017-Jul-17 02:30N 34°39' E 135°24'0 0.1
2017-Jul-17 02:00N 34°39' E 135°24'0 0.0
2017-Jul-17 01:15N 34°39' E 135°24'0 0.0
2017-Jul-17 00:56N 34°39' E 135°24'0 0.1
2017-Jul-17 00:20N 34°39' E 135°24'0 0.2
2017-Jul-16 23:50N 34°39' E 135°24'0 0.0
2017-Jul-16 21:43N 34°39' E 135°24'1 2.6
2017-Jul-16 21:30N 34°39' E 135°24'511.0
2017-Jul-16 21:01N 34°36' E 135°18'816.0
2017-Jul-16 20:29N 34°35' E 135°08'816.0
2017-Jul-16 20:00N 34°37' E 134°59'915.8
2017-Jul-16 19:27N 34°34' E 134°50'  
Track history (hours):
 
Tides and Currents Weather Stations Pressure Air Temp Water Temp Dewpoint Dewpoint Depression Visibility Wind Speed Wind Dir Waves Ship Positions

Jj Sky

Last reported at 2017-Jul-25 04:13 UTC. Time now 2017-Jul-26 18:36 UTC.
Position N 34°36' E 134°54'.

Length 148 m; draft 7.2 m.

Type: Ship (hazmat cat D). MMSI: 477397500.

Date/timePositionNaut miles runAvg speedWind from/ knotsBaromVisibWave heightAir tempDewpointWater temp
2017-Jul-25 04:13N 34°36' E 134°54'314.6
2017-Jul-25 03:59N 34°37' E 134°58'612.8
2017-Jul-25 03:29N 34°37' E 135°06'815.8
2017-Jul-25 03:00N 34°38' E 135°15'2 3.1
2017-Jul-25 02:25N 34°40' E 135°14'0 0.1
2017-Jul-25 01:18N 34°39' E 135°14'0 0.0
2017-Jul-25 01:00N 34°39' E 135°14'0 0.0
2017-Jul-25 00:30N 34°39' E 135°14'0 0.1
2017-Jul-24 23:54N 34°40' E 135°14'0 0.0
2017-Jul-24 23:30N 34°40' E 135°14'0 0.2
2017-Jul-24 22:53N 34°39' E 135°14'0 0.0
2017-Jul-24 22:29N 34°39' E 135°14'0 0.1
2017-Jul-24 22:01N 34°39' E 135°15'4 8.3
2017-Jul-24 21:30N 34°39' E 135°19'4 7.7
2017-Jul-24 21:00N 34°39' E 135°24'0 0.1
2017-Jul-24 20:30N 34°39' E 135°24'0 0.0
2017-Jul-24 20:00N 34°39' E 135°24'0 0.1
2017-Jul-24 19:30N 34°39' E 135°24'0 0.0
2017-Jul-24 19:00N 34°39' E 135°24'0 0.0
2017-Jul-24 18:28N 34°39' E 135°24'0 0.0
2017-Jul-24 17:58N 34°39' E 135°24'0 0.0
2017-Jul-24 17:28N 34°39' E 135°24'0 0.0
2017-Jul-24 16:57N 34°39' E 135°24'0 0.0
2017-Jul-24 16:27N 34°39' E 135°24'0 0.0
2017-Jul-24 15:44N 34°39' E 135°24'0 0.0
2017-Jul-24 12:55N 34°39' E 135°24'0 0.0
2017-Jul-24 12:25N 34°39' E 135°24'0 0.0
2017-Jul-24 11:43N 34°39' E 135°24'0 0.0
2017-Jul-24 11:28N 34°39' E 135°24'0 0.0
2017-Jul-24 10:53N 34°39' E 135°24'0 0.0
2017-Jul-24 10:28N 34°39' E 135°24'0 0.0
2017-Jul-24 09:58N 34°39' E 135°24'0 0.0
2017-Jul-24 09:30N 34°39' E 135°24'0 0.0
2017-Jul-24 08:57N 34°39' E 135°24'0 0.0
2017-Jul-24 08:15N 34°39' E 135°24'0 0.0
2017-Jul-24 07:52N 34°39' E 135°24'0 0.0
2017-Jul-24 07:20N 34°39' E 135°24'0 0.0
2017-Jul-24 06:56N 34°39' E 135°24'0 0.0
2017-Jul-24 05:43N 34°39' E 135°24'0 0.0
2017-Jul-24 05:25N 34°39' E 135°24'0 0.0
2017-Jul-24 04:49N 34°39' E 135°24'0 0.0
2017-Jul-24 04:24N 34°39' E 135°24'0 0.0
2017-Jul-24 04:00N 34°39' E 135°24'0 0.1
2017-Jul-24 03:00N 34°39' E 135°24'0 0.2
2017-Jul-24 02:30N 34°39' E 135°24'0 0.0
2017-Jul-24 01:53N 34°39' E 135°24'0 0.0
2017-Jul-24 01:11N 34°39' E 135°24'0 0.0
2017-Jul-24 00:53N 34°39' E 135°24'0 0.0
2017-Jul-24 00:23N 34°39' E 135°24'0 0.0
2017-Jul-23 23:58N 34°39' E 135°24'0 0.0
2017-Jul-23 23:28N 34°39' E 135°24'0 0.0
2017-Jul-23 22:58N 34°39' E 135°24'0 0.0
2017-Jul-23 22:22N 34°39' E 135°24'0 0.0
2017-Jul-23 21:57N 34°39' E 135°24'0 0.2
2017-Jul-23 21:30N 34°39' E 135°24'5 9.5
2017-Jul-23 21:00N 34°36' E 135°19'714.9
2017-Jul-23 20:30N 34°35' E 135°10'714.3
2017-Jul-23 20:00N 34°36' E 135°02'814.8
2017-Jul-23 19:29N 34°35' E 134°53'57813.5
2017-Jul-22 00:41N 31°34' E 123°58'314.6
2017-Jul-22 00:28N 31°33' E 123°54'714.6
2017-Jul-22 00:00N 31°30' E 123°47'714.7
2017-Jul-21 23:30N 31°27' E 123°39'714.6
2017-Jul-21 23:00N 31°24' E 123°31'714.3
2017-Jul-21 22:29N 31°21' E 123°23'714.5
2017-Jul-21 22:00N 31°18' E 123°16'714.9
2017-Jul-21 21:30N 31°15' E 123°08'815.3
2017-Jul-21 21:00N 31°12' E 122°60'815.1
2017-Jul-21 20:30N 31°09' E 122°52'714.3
2017-Jul-21 20:00N 31°06' E 122°44'815.1
2017-Jul-21 19:30N 31°05' E 122°35'815.0
2017-Jul-21 19:00N 31°05' E 122°27'612.9
2017-Jul-21 18:30N 31°06' E 122°19'714.8
2017-Jul-21 18:00N 31°10' E 122°12'714.7
2017-Jul-21 17:30N 31°14' E 122°05'714.8
2017-Jul-21 17:00N 31°15' E 121°56'714.6
2017-Jul-21 16:30N 31°17' E 121°48'713.1
2017-Jul-21 16:00N 31°20' E 121°41'1 1.1
2017-Jul-21 15:29N 31°20' E 121°40'0 0.0
2017-Jul-21 14:41N 31°20' E 121°40'0 0.0
2017-Jul-21 14:05N 31°20' E 121°40'0 0.5
2017-Jul-21 13:59N 31°20' E 121°40'0 0.0
2017-Jul-21 13:28N 31°20' E 121°40'0 0.0
2017-Jul-21 12:46N 31°20' E 121°40'0 0.0
2017-Jul-21 12:28N 31°20' E 121°40'0 0.0
2017-Jul-21 11:58N 31°20' E 121°40'0 0.1
2017-Jul-21 11:21N 31°20' E 121°40'0 0.1
2017-Jul-21 10:54N 31°20' E 121°40'0 0.0
2017-Jul-21 10:27N 31°20' E 121°40'0 0.0
2017-Jul-21 09:57N 31°20' E 121°40'0 0.0
2017-Jul-21 09:30N 31°20' E 121°40'0 0.0
2017-Jul-21 08:56N 31°20' E 121°40'0 0.0
2017-Jul-21 08:26N 31°20' E 121°40'0 0.0
2017-Jul-21 07:50N 31°20' E 121°40'0 0.0
2017-Jul-21 07:29N 31°20' E 121°40'0 0.0
2017-Jul-21 06:58N 31°20' E 121°40'0 0.0
2017-Jul-21 06:28N 31°20' E 121°40'0 0.1
2017-Jul-21 05:52N 31°20' E 121°40'0 0.0
2017-Jul-21 05:30N 31°20' E 121°40'0 0.1
2017-Jul-21 05:00N 31°20' E 121°40'4 8.5
2017-Jul-21 04:30N 31°19' E 121°45'713.4
2017-Jul-21 04:00N 31°16' E 121°52'713.6
2017-Jul-21 03:31N 31°15' E 122°00'611.8
2017-Jul-21 03:00N 31°13' E 122°07'612.8
2017-Jul-21 02:30N 31°10' E 122°13'510.2
2017-Jul-21 02:00N 31°07' E 122°18'713.8
2017-Jul-21 01:29N 31°07' E 122°26'511.1
2017-Jul-21 01:00N 31°06' E 122°32'511.0
2017-Jul-21 00:30N 31°03' E 122°28'4 7.2
2017-Jul-21 00:00N 31°00' E 122°31'5 8.7
2017-Jul-20 23:27N 31°02' E 122°36'0 0.0
2017-Jul-20 22:51N 31°02' E 122°36'0 0.0
2017-Jul-20 22:30N 31°02' E 122°36'0 0.0
2017-Jul-20 21:57N 31°02' E 122°36'0 0.0
2017-Jul-20 21:26N 31°02' E 122°36'0 0.1
2017-Jul-20 20:53N 31°02' E 122°36'0 0.0
2017-Jul-20 20:29N 31°02' E 122°36'0 0.0
2017-Jul-20 19:56N 31°02' E 122°36'0 0.0
2017-Jul-20 18:58N 31°02' E 122°36'0 0.0
2017-Jul-20 18:25N 31°02' E 122°36'0 0.0
2017-Jul-20 17:46N 31°02' E 122°36'0 0.2
2017-Jul-20 17:28N 31°02' E 122°36'0 0.0
2017-Jul-20 14:32N 31°02' E 122°36'0 0.0
2017-Jul-20 12:16N 31°02' E 122°36'0 0.0
2017-Jul-20 11:52N 31°02' E 122°36'0 0.0
2017-Jul-20 11:22N 31°02' E 122°36'0 0.0
2017-Jul-20 10:10N 31°02' E 122°36'0 0.0
2017-Jul-20 09:58N 31°02' E 122°36'0 0.0
2017-Jul-20 08:57N 31°01' E 122°36'0 0.0
2017-Jul-20 08:27N 31°01' E 122°36'0 0.1
2017-Jul-20 07:57N 31°01' E 122°36'3 7.0
2017-Jul-20 07:30N 30°60' E 122°39'815.9
2017-Jul-20 07:01N 31°05' E 122°47'816.3
2017-Jul-20 06:31N 31°08' E 122°55'816.0
2017-Jul-20 06:00N 31°13' E 123°03'815.1
2017-Jul-20 05:30N 31°16' E 123°11'815.2
2017-Jul-20 04:59N 31°18' E 123°20'714.7
2017-Jul-20 04:31N 31°21' E 123°27'714.5
2017-Jul-20 04:00N 31°24' E 123°35'714.6
2017-Jul-20 03:30N 31°27' E 123°43'814.5
2017-Jul-20 02:59N 31°30' E 123°51'714.1
2017-Jul-20 02:30N 31°32' E 123°58'713.9
2017-Jul-20 02:00N 31°35' E 124°06'813.7
2017-Jul-20 01:23N 31°39' E 124°15'1414.4
2017-Jul-20 00:24N 31°45' E 124°30'614.5
2017-Jul-19 23:59N 31°47' E 124°36'714.5
2017-Jul-19 23:28N 31°50' E 124°45'814.8
2017-Jul-19 22:57N 31°53' E 124°53'614.2
2017-Jul-19 22:30N 31°55' E 125°00'51812.3
2017-Jul-18 04:24N 34°34' E 134°49'614.2
2017-Jul-18 04:00N 34°36' E 134°55'612.4
2017-Jul-18 03:29N 34°37' E 135°03'713.5
2017-Jul-18 02:58N 34°37' E 135°11'4 8.4
2017-Jul-18 02:30N 34°39' E 135°15'1 1.2
2017-Jul-18 01:56N 34°39' E 135°14'0 0.0
2017-Jul-18 01:20N 34°39' E 135°14'0 0.0
2017-Jul-18 00:56N 34°39' E 135°14'0 0.0
2017-Jul-17 23:36N 34°39' E 135°14'0 0.0
2017-Jul-17 23:18N 34°39' E 135°14'0 0.0
2017-Jul-17 23:00N 34°39' E 135°14'0 0.0
2017-Jul-17 22:18N 34°39' E 135°14'0 0.2
2017-Jul-17 22:00N 34°40' E 135°14'3 6.4
2017-Jul-17 21:30N 34°38' E 135°18'5 9.9
2017-Jul-17 21:00N 34°39' E 135°24'0 0.1
2017-Jul-17 20:25N 34°39' E 135°24'0 0.1
2017-Jul-17 19:55N 34°39' E 135°24'0 0.0
2017-Jul-17 19:30N 34°39' E 135°24'0 0.0
2017-Jul-17 19:00N 34°39' E 135°24'0 0.0
2017-Jul-17 18:30N 34°39' E 135°24'0 0.0
2017-Jul-17 18:00N 34°39' E 135°24'0 0.0
2017-Jul-17 17:30N 34°39' E 135°24'0 0.0
2017-Jul-17 16:53N 34°39' E 135°24'0 0.0
2017-Jul-17 16:29N 34°39' E 135°24'0 0.0
2017-Jul-17 15:59N 34°39' E 135°24'0 0.0
2017-Jul-17 15:26N 34°39' E 135°24'0 0.0
2017-Jul-17 14:56N 34°39' E 135°24'0 0.0
2017-Jul-17 14:26N 34°39' E 135°24'0 0.0
2017-Jul-17 13:56N 34°39' E 135°24'0 0.0
2017-Jul-17 13:13N 34°39' E 135°24'0 0.0
2017-Jul-17 12:55N 34°39' E 135°24'0 0.0
2017-Jul-17 12:30N 34°39' E 135°24'0 0.0
2017-Jul-17 12:00N 34°39' E 135°24'0 0.0
2017-Jul-17 11:18N 34°39' E 135°24'0 0.0
2017-Jul-17 11:00N 34°39' E 135°24'0 0.0
2017-Jul-17 10:30N 34°39' E 135°24'0 0.0
2017-Jul-17 09:53N 34°39' E 135°24'0 0.0
2017-Jul-17 09:29N 34°39' E 135°24'0 0.0
2017-Jul-17 08:59N 34°39' E 135°24'0 0.0
2017-Jul-17 08:29N 34°39' E 135°24'0 0.0
2017-Jul-17 07:50N 34°39' E 135°24'0 0.0
2017-Jul-17 07:26N 34°39' E 135°24'0 0.0
2017-Jul-17 06:43N 34°39' E 135°24'0 0.0
2017-Jul-17 06:19N 34°39' E 135°24'0 0.0
2017-Jul-17 05:22N 34°39' E 135°24'0 0.0
2017-Jul-17 04:58N 34°39' E 135°24'0 0.1
2017-Jul-17 04:25N 34°39' E 135°24'0 0.1
2017-Jul-17 03:43N 34°39' E 135°24'0 0.0
2017-Jul-17 03:30N 34°39' E 135°24'0 0.0
2017-Jul-17 03:00N 34°39' E 135°24'0 0.1
2017-Jul-17 02:30N 34°39' E 135°24'0 0.1
2017-Jul-17 02:00N 34°39' E 135°24'0 0.0
2017-Jul-17 01:15N 34°39' E 135°24'0 0.0
2017-Jul-17 00:56N 34°39' E 135°24'0 0.1
2017-Jul-17 00:20N 34°39' E 135°24'0 0.2
2017-Jul-16 23:50N 34°39' E 135°24'0 0.0
2017-Jul-16 21:43N 34°39' E 135°24'1 2.6
2017-Jul-16 21:30N 34°39' E 135°24'511.0
2017-Jul-16 21:01N 34°36' E 135°18'816.0
2017-Jul-16 20:29N 34°35' E 135°08'816.0
2017-Jul-16 20:00N 34°37' E 134°59'915.8
2017-Jul-16 19:27N 34°34' E 134°50'  

Dump ship's entire track history